MSR912 OMDB-HECA
Flight info
| Callsign | MSR912 |
|---|---|
| Flight time | 4h 12m |
| Altitude | 38000 |
| Route | ANVIX R401 GIDIS G783 RIGIL/N0512F320 G783 TANSU/N0514F280 G783 ASNUR L883 PUSON/N0489F400 L883 KITUB Y511 ELONU G799 PMA V10 PEGUR Z712 WEJ L677 CVO |
| Aircraft | A359/H-SDE2E3GHIJ3J4J5LM1ORWXY/LB1D1 |
Departure
| Time | 2026-04-24 16:07 |
|---|---|
| Airport | Dubai International Airport (OMDB) |
Arrival
| Time | 2026-04-24 20:19 |
|---|---|
| Airport | Cairo International Airport (HECA) |
| Time | Latitude | Longitude | Altitude | Speed | Heading |
|---|---|---|---|---|---|
| 2026-04-24 15:06 | 25.25847 | 55.34571 | 28 ft | 0 kts | 211° |
| 2026-04-24 15:47 | 25.25853 | 55.34575 | 0 ft | 4 kts | 211° |
| 2026-04-24 15:47 | 25.25876 | 55.34591 | 27 ft | 4 kts | 211° |
| 2026-04-24 15:47 | 25.25896 | 55.34604 | 25 ft | 2 kts | 211° |
| 2026-04-24 15:47 | 25.25918 | 55.34616 | 25 ft | 4 kts | 185° |
| 2026-04-24 15:48 | 25.25941 | 55.34610 | 26 ft | 4 kts | 127° |
| 2026-04-24 15:48 | 25.25954 | 55.34587 | 25 ft | 4 kts | 121° |
| 2026-04-24 15:48 | 25.25966 | 55.34566 | 27 ft | 0 kts | 121° |
| 2026-04-24 15:55 | 25.25963 | 55.34571 | 27 ft | 2 kts | 121° |
| 2026-04-24 15:55 | 25.25945 | 55.34603 | 27 ft | 8 kts | 121° |
| 2026-04-24 15:56 | 25.25909 | 55.34668 | 27 ft | 11 kts | 122° |
| 2026-04-24 15:56 | 25.25864 | 55.34747 | 27 ft | 13 kts | 122° |
| 2026-04-24 15:56 | 25.25812 | 55.34840 | 27 ft | 15 kts | 121° |
| 2026-04-24 15:56 | 25.25754 | 55.34943 | 27 ft | 12 kts | 122° |
| 2026-04-24 15:57 | 25.25751 | 55.34987 | 27 ft | 6 kts | 61° |
| 2026-04-24 15:57 | 25.25786 | 55.35018 | 27 ft | 7 kts | 33° |
| 2026-04-24 15:57 | 25.25817 | 55.35039 | 27 ft | 9 kts | 30° |
| 2026-04-24 15:57 | 25.25898 | 55.35094 | 27 ft | 12 kts | 32° |
| 2026-04-24 15:58 | 25.25978 | 55.35149 | 28 ft | 15 kts | 32° |
| 2026-04-24 15:58 | 25.26062 | 55.35205 | 28 ft | 10 kts | 32° |
| 2026-04-24 15:58 | 25.26080 | 55.35217 | 28 ft | 0 kts | 31° |
| 2026-04-24 15:59 | 25.26091 | 55.35224 | 28 ft | 7 kts | 31° |
| 2026-04-24 16:00 | 25.26149 | 55.35275 | 28 ft | 10 kts | 68° |
| 2026-04-24 16:00 | 25.26147 | 55.35344 | 29 ft | 7 kts | 102° |
| 2026-04-24 16:00 | 25.26120 | 55.35371 | 28 ft | 8 kts | 142° |
| 2026-04-24 16:00 | 25.26058 | 55.35435 | 28 ft | 16 kts | 128° |
| 2026-04-24 16:01 | 25.25989 | 55.35556 | 28 ft | 21 kts | 121° |
| 2026-04-24 16:01 | 25.25906 | 55.35703 | 28 ft | 24 kts | 121° |
| 2026-04-24 16:01 | 25.25813 | 55.35869 | 28 ft | 26 kts | 122° |
| 2026-04-24 16:01 | 25.25727 | 55.36020 | 28 ft | 19 kts | 122° |
| 2026-04-24 16:02 | 25.25657 | 55.36145 | 29 ft | 20 kts | 121° |
| 2026-04-24 16:02 | 25.25583 | 55.36279 | 29 ft | 21 kts | 121° |
| 2026-04-24 16:02 | 25.25501 | 55.36424 | 28 ft | 23 kts | 122° |
| 2026-04-24 16:02 | 25.25413 | 55.36578 | 28 ft | 24 kts | 122° |
| 2026-04-24 16:03 | 25.25322 | 55.36744 | 28 ft | 26 kts | 121° |
| 2026-04-24 16:03 | 25.25225 | 55.36916 | 28 ft | 27 kts | 122° |
| 2026-04-24 16:03 | 25.25130 | 55.37084 | 29 ft | 22 kts | 122° |
| 2026-04-24 16:03 | 25.25049 | 55.37227 | 29 ft | 23 kts | 122° |
| 2026-04-24 16:04 | 25.24963 | 55.37381 | 30 ft | 24 kts | 122° |
| 2026-04-24 16:04 | 25.24871 | 55.37543 | 29 ft | 26 kts | 121° |
| 2026-04-24 16:04 | 25.24774 | 55.37715 | 29 ft | 27 kts | 121° |
| 2026-04-24 16:04 | 25.24683 | 55.37877 | 28 ft | 13 kts | 122° |
| 2026-04-24 16:05 | 25.24686 | 55.37966 | 29 ft | 6 kts | 37° |
| 2026-04-24 16:05 | 25.24725 | 55.37994 | 30 ft | 7 kts | 32° |
| 2026-04-24 16:06 | 25.24809 | 55.38018 | 31 ft | 7 kts | 318° |
| 2026-04-24 16:06 | 25.24863 | 55.37924 | 32 ft | 28 kts | 301° |
| 2026-04-24 16:06 | 25.25547 | 55.36691 | 31 ft | 153 kts | 301° |
| 2026-04-24 16:07 | 25.26156 | 55.35600 | 425 ft | 167 kts | 302° |
| 2026-04-24 16:07 | 25.26766 | 55.34565 | 1225 ft | 159 kts | 307° |
| 2026-04-24 16:07 | 25.28074 | 55.32368 | 1760 ft | 185 kts | 305° |
| 2026-04-24 16:08 | 25.28772 | 55.31100 | 2001 ft | 201 kts | 302° |
| 2026-04-24 16:08 | 25.29379 | 55.27912 | 2444 ft | 239 kts | 253° |
| 2026-04-24 16:09 | 25.27687 | 55.24818 | 3774 ft | 230 kts | 240° |
| 2026-04-24 16:09 | 25.26871 | 55.23300 | 4355 ft | 230 kts | 243° |
| 2026-04-24 16:09 | 25.26385 | 55.22257 | 4717 ft | 230 kts | 246° |
| 2026-04-24 16:09 | 25.25465 | 55.20121 | 5454 ft | 230 kts | 246° |
| 2026-04-24 16:10 | 25.22407 | 55.16209 | 6787 ft | 251 kts | 193° |
| 2026-04-24 16:11 | 25.18915 | 55.17000 | 7492 ft | 275 kts | 148° |
| 2026-04-24 16:11 | 25.17574 | 55.18550 | 7813 ft | 288 kts | 122° |
| 2026-04-24 16:11 | 25.16633 | 55.20549 | 8176 ft | 297 kts | 117° |
| 2026-04-24 16:12 | 25.14717 | 55.24833 | 8656 ft | 323 kts | 118° |
| 2026-04-24 16:12 | 25.13681 | 55.27052 | 8877 ft | 336 kts | 119° |
| 2026-04-24 16:12 | 25.11435 | 55.31782 | 9318 ft | 358 kts | 120° |
| 2026-04-24 16:13 | 25.10256 | 55.34255 | 9530 ft | 369 kts | 118° |
| 2026-04-24 16:13 | 25.08464 | 55.38607 | 10084 ft | 377 kts | 115° |
| 2026-04-24 16:14 | 25.06115 | 55.43799 | 10816 ft | 379 kts | 127° |
| 2026-04-24 16:14 | 25.04402 | 55.46009 | 11205 ft | 379 kts | 137° |
| 2026-04-24 16:14 | 24.99994 | 55.48998 | 12088 ft | 371 kts | 167° |
| 2026-04-24 16:15 | 24.98327 | 55.49410 | 12365 ft | 371 kts | 172° |
| 2026-04-24 16:15 | 24.92286 | 55.49900 | 13222 ft | 375 kts | 180° |
| 2026-04-24 16:16 | 24.87071 | 55.49956 | 13925 ft | 379 kts | 181° |
| 2026-04-24 16:16 | 24.84427 | 55.50000 | 14218 ft | 381 kts | 180° |
| 2026-04-24 16:17 | 24.76402 | 55.50254 | 15146 ft | 389 kts | 179° |
| 2026-04-24 16:17 | 24.70938 | 55.50469 | 15780 ft | 394 kts | 179° |
| 2026-04-24 16:18 | 24.65424 | 55.50688 | 16424 ft | 399 kts | 180° |
| 2026-04-24 16:18 | 24.59834 | 55.50906 | 17061 ft | 404 kts | 180° |
| 2026-04-24 16:18 | 24.57018 | 55.51014 | 17387 ft | 406 kts | 180° |
| 2026-04-24 16:19 | 24.51361 | 55.51232 | 17989 ft | 411 kts | 180° |
| 2026-04-24 16:19 | 24.48496 | 55.51342 | 18287 ft | 413 kts | 180° |
| 2026-04-24 16:20 | 24.42721 | 55.51565 | 18873 ft | 416 kts | 180° |
| 2026-04-24 16:20 | 24.36904 | 55.51789 | 19444 ft | 419 kts | 180° |
| 2026-04-24 16:20 | 24.33983 | 55.51901 | 19724 ft | 420 kts | 180° |
| 2026-04-24 16:21 | 24.28110 | 55.52126 | 20293 ft | 423 kts | 180° |
| 2026-04-24 16:21 | 24.25199 | 55.52238 | 20560 ft | 425 kts | 180° |
| 2026-04-24 16:21 | 24.22238 | 55.52351 | 20804 ft | 427 kts | 180° |
| 2026-04-24 16:22 | 24.19258 | 55.52465 | 21075 ft | 428 kts | 180° |
| 2026-04-24 16:22 | 24.13271 | 55.52695 | 21582 ft | 431 kts | 180° |
| 2026-04-24 16:22 | 24.10267 | 55.52810 | 21833 ft | 433 kts | 180° |
| 2026-04-24 16:23 | 24.07254 | 55.52925 | 22079 ft | 434 kts | 180° |
| 2026-04-24 16:23 | 24.04219 | 55.53040 | 22321 ft | 436 kts | 180° |
| 2026-04-24 16:23 | 24.01197 | 55.52900 | 22542 ft | 434 kts | 190° |
| 2026-04-24 16:24 | 23.95272 | 55.51529 | 23463 ft | 435 kts | 197° |
| 2026-04-24 16:24 | 23.92376 | 55.50696 | 23876 ft | 437 kts | 198° |
| 2026-04-24 16:24 | 23.89440 | 55.49810 | 24265 ft | 440 kts | 198° |
| 2026-04-24 16:24 | 23.86475 | 55.48904 | 24699 ft | 443 kts | 198° |
| 2026-04-24 16:25 | 23.83485 | 55.47994 | 25120 ft | 446 kts | 198° |
| 2026-04-24 16:25 | 23.80481 | 55.47088 | 25561 ft | 449 kts | 198° |
| 2026-04-24 16:25 | 23.77450 | 55.46178 | 26004 ft | 452 kts | 198° |
| 2026-04-24 16:26 | 23.71335 | 55.44355 | 26849 ft | 459 kts | 198° |
| 2026-04-24 16:26 | 23.68243 | 55.43436 | 27253 ft | 462 kts | 198° |
| 2026-04-24 16:26 | 23.61996 | 55.41586 | 28106 ft | 468 kts | 198° |
| 2026-04-24 16:27 | 23.58843 | 55.40654 | 28525 ft | 471 kts | 198° |
| 2026-04-24 16:27 | 23.55703 | 55.39725 | 28929 ft | 474 kts | 198° |
| 2026-04-24 16:27 | 23.52508 | 55.38781 | 29335 ft | 477 kts | 198° |
| 2026-04-24 16:27 | 23.49292 | 55.37834 | 29721 ft | 480 kts | 198° |
| 2026-04-24 16:28 | 23.46047 | 55.36876 | 30053 ft | 483 kts | 198° |
| 2026-04-24 16:28 | 23.42799 | 55.35915 | 30363 ft | 485 kts | 198° |
| 2026-04-24 16:28 | 23.36302 | 55.33993 | 31058 ft | 487 kts | 197° |
| 2026-04-24 16:29 | 23.33021 | 55.33024 | 31324 ft | 490 kts | 197° |
| 2026-04-24 16:29 | 23.29719 | 55.32049 | 31610 ft | 493 kts | 197° |
| 2026-04-24 16:29 | 23.23056 | 55.30085 | 32179 ft | 496 kts | 197° |
| 2026-04-24 16:30 | 23.16391 | 55.28124 | 32983 ft | 494 kts | 197° |
| 2026-04-24 16:30 | 23.13077 | 55.27144 | 33336 ft | 494 kts | 198° |
| 2026-04-24 16:30 | 23.09874 | 55.25931 | 33561 ft | 493 kts | 206° |
| 2026-04-24 16:31 | 23.06835 | 55.24240 | 33945 ft | 488 kts | 214° |
| 2026-04-24 16:31 | 23.04089 | 55.22095 | 34264 ft | 484 kts | 223° |
| 2026-04-24 16:31 | 23.01717 | 55.19536 | 34592 ft | 479 kts | 232° |
| 2026-04-24 16:31 | 22.99770 | 55.16626 | 34952 ft | 473 kts | 242° |
| 2026-04-24 16:32 | 22.98219 | 55.13503 | 35333 ft | 468 kts | 246° |
| 2026-04-24 16:32 | 22.96800 | 55.10344 | 35739 ft | 464 kts | 248° |
| 2026-04-24 16:32 | 22.95438 | 55.07182 | 36144 ft | 460 kts | 249° |
| 2026-04-24 16:32 | 22.94119 | 55.04079 | 36510 ft | 457 kts | 249° |
| 2026-04-24 16:33 | 22.92788 | 55.00956 | 36894 ft | 454 kts | 249° |
| 2026-04-24 16:33 | 22.91458 | 54.97862 | 37353 ft | 449 kts | 250° |
| 2026-04-24 16:33 | 22.90135 | 54.94811 | 37829 ft | 444 kts | 250° |
| 2026-04-24 16:33 | 22.88818 | 54.91790 | 38188 ft | 441 kts | 250° |
| 2026-04-24 16:34 | 22.87508 | 54.88793 | 38517 ft | 438 kts | 250° |
| 2026-04-24 16:34 | 22.86197 | 54.85800 | 38698 ft | 438 kts | 250° |
| 2026-04-24 16:34 | 22.84904 | 54.82846 | 38829 ft | 439 kts | 250° |
| 2026-04-24 16:34 | 22.83594 | 54.79856 | 38932 ft | 439 kts | 250° |
| 2026-04-24 16:35 | 22.82277 | 54.76854 | 39071 ft | 440 kts | 250° |
| 2026-04-24 16:35 | 22.80963 | 54.73860 | 39218 ft | 440 kts | 250° |
| 2026-04-24 16:35 | 22.79648 | 54.70868 | 39374 ft | 439 kts | 250° |
| 2026-04-24 16:35 | 22.78333 | 54.67877 | 39507 ft | 439 kts | 250° |
| 2026-04-24 16:36 | 22.77016 | 54.64883 | 39628 ft | 440 kts | 250° |
| 2026-04-24 16:36 | 22.75698 | 54.61889 | 39752 ft | 440 kts | 249° |
| 2026-04-24 16:36 | 22.73075 | 54.55933 | 39839 ft | 441 kts | 249° |
| 2026-04-24 16:37 | 22.70434 | 54.49948 | 39847 ft | 440 kts | 249° |
| 2026-04-24 16:37 | 22.67785 | 54.43957 | 39828 ft | 440 kts | 249° |
| 2026-04-24 16:38 | 22.65149 | 54.37976 | 39839 ft | 439 kts | 249° |
| 2026-04-24 16:38 | 22.62516 | 54.32003 | 39844 ft | 439 kts | 250° |
| 2026-04-24 16:39 | 22.59897 | 54.26077 | 39844 ft | 439 kts | 250° |
| 2026-04-24 16:39 | 22.57255 | 54.20114 | 39850 ft | 439 kts | 249° |
| 2026-04-24 16:40 | 22.54612 | 54.14144 | 39845 ft | 439 kts | 249° |
| 2026-04-24 16:40 | 22.51983 | 54.08216 | 39847 ft | 438 kts | 249° |
| 2026-04-24 16:41 | 22.49335 | 54.02254 | 39849 ft | 438 kts | 249° |
| 2026-04-24 16:41 | 22.46692 | 53.96310 | 39846 ft | 438 kts | 249° |
| 2026-04-24 16:42 | 22.44066 | 53.90414 | 39848 ft | 437 kts | 249° |
| 2026-04-24 16:42 | 22.41424 | 53.84484 | 39844 ft | 437 kts | 249° |
| 2026-04-24 16:43 | 22.38779 | 53.78559 | 39853 ft | 438 kts | 249° |
| 2026-04-24 16:43 | 22.36125 | 53.72623 | 39842 ft | 438 kts | 249° |
| 2026-04-24 16:44 | 22.33472 | 53.66691 | 39849 ft | 439 kts | 249° |
| 2026-04-24 16:44 | 22.30830 | 53.60793 | 39847 ft | 439 kts | 249° |
| 2026-04-24 16:45 | 22.28167 | 53.54859 | 39847 ft | 439 kts | 249° |
| 2026-04-24 16:45 | 22.25505 | 53.48925 | 39848 ft | 439 kts | 249° |
| 2026-04-24 16:46 | 22.22838 | 53.42987 | 39851 ft | 439 kts | 249° |
| 2026-04-24 16:46 | 22.20183 | 53.37085 | 39851 ft | 439 kts | 249° |
| 2026-04-24 16:47 | 22.17514 | 53.31159 | 39850 ft | 439 kts | 249° |
| 2026-04-24 16:47 | 22.14837 | 53.25223 | 39850 ft | 439 kts | 249° |
| 2026-04-24 16:48 | 22.12165 | 53.19308 | 39852 ft | 438 kts | 249° |
| 2026-04-24 16:48 | 22.09495 | 53.13402 | 39850 ft | 438 kts | 249° |
| 2026-04-24 16:49 | 22.06839 | 53.07533 | 39844 ft | 438 kts | 249° |
| 2026-04-24 16:49 | 22.04158 | 53.01614 | 39848 ft | 438 kts | 249° |
| 2026-04-24 16:50 | 22.01486 | 52.95726 | 39844 ft | 437 kts | 249° |
| 2026-04-24 16:50 | 21.98810 | 52.89832 | 39851 ft | 437 kts | 249° |
| 2026-04-24 16:51 | 21.96148 | 52.83979 | 39851 ft | 437 kts | 249° |
| 2026-04-24 16:51 | 21.93466 | 52.78087 | 39850 ft | 437 kts | 249° |
| 2026-04-24 16:52 | 21.90786 | 52.72204 | 39852 ft | 436 kts | 249° |
| 2026-04-24 16:52 | 21.88125 | 52.66367 | 39853 ft | 436 kts | 249° |
| 2026-04-24 16:53 | 21.85441 | 52.60498 | 39854 ft | 436 kts | 249° |
| 2026-04-24 16:53 | 21.82760 | 52.54643 | 39854 ft | 436 kts | 249° |
| 2026-04-24 16:54 | 21.80074 | 52.48784 | 39853 ft | 436 kts | 249° |
| 2026-04-24 16:54 | 21.77410 | 52.42976 | 39853 ft | 435 kts | 249° |
| 2026-04-24 16:55 | 21.74729 | 52.37143 | 39854 ft | 435 kts | 249° |
| 2026-04-24 16:55 | 21.72033 | 52.31296 | 39854 ft | 435 kts | 249° |
| 2026-04-24 16:56 | 21.69339 | 52.25455 | 39850 ft | 435 kts | 249° |
| 2026-04-24 16:56 | 21.66661 | 52.19659 | 39850 ft | 435 kts | 249° |
| 2026-04-24 16:57 | 21.63966 | 52.13830 | 39852 ft | 435 kts | 249° |
| 2026-04-24 16:57 | 21.61267 | 52.08001 | 39851 ft | 435 kts | 249° |
| 2026-04-24 16:58 | 21.58585 | 52.02214 | 39850 ft | 434 kts | 249° |
| 2026-04-24 16:58 | 21.55886 | 51.96399 | 39852 ft | 434 kts | 249° |
| 2026-04-24 16:59 | 21.53184 | 51.90582 | 39850 ft | 434 kts | 249° |
| 2026-04-24 17:00 | 21.49148 | 51.81906 | 39852 ft | 434 kts | 249° |
| 2026-04-24 17:00 | 21.45927 | 51.74060 | 39853 ft | 426 kts | 258° |
| 2026-04-24 17:01 | 21.45059 | 51.67841 | 39855 ft | 419 kts | 272° |
| 2026-04-24 17:01 | 21.45078 | 51.64717 | 39854 ft | 419 kts | 273° |
| 2026-04-24 17:02 | 21.45438 | 51.55330 | 39854 ft | 419 kts | 274° |
| 2026-04-24 17:02 | 21.45699 | 51.49134 | 39853 ft | 418 kts | 274° |
| 2026-04-24 17:03 | 21.46049 | 51.39763 | 39854 ft | 418 kts | 274° |
| 2026-04-24 17:04 | 21.46270 | 51.33560 | 39854 ft | 418 kts | 274° |
| 2026-04-24 17:04 | 21.46601 | 51.24212 | 39851 ft | 417 kts | 274° |
| 2026-04-24 17:05 | 21.46815 | 51.17989 | 39851 ft | 417 kts | 274° |
| 2026-04-24 17:06 | 21.47134 | 51.08639 | 39849 ft | 417 kts | 274° |
| 2026-04-24 17:06 | 21.47447 | 50.99343 | 39852 ft | 417 kts | 274° |
| 2026-04-24 17:07 | 21.47655 | 50.93111 | 39859 ft | 417 kts | 274° |
| 2026-04-24 17:08 | 21.48061 | 50.80693 | 39852 ft | 416 kts | 273° |
| 2026-04-24 17:08 | 21.48261 | 50.74475 | 39849 ft | 416 kts | 273° |
| 2026-04-24 17:09 | 21.48654 | 50.62059 | 39852 ft | 416 kts | 273° |
| 2026-04-24 17:10 | 21.49038 | 50.49631 | 39849 ft | 415 kts | 273° |
| 2026-04-24 17:12 | 21.49774 | 50.24871 | 39853 ft | 415 kts | 273° |
| 2026-04-24 18:54 | 25.04021 | 39.31086 | 42890 ft | 442 kts | 313° |
| 2026-04-24 18:55 | 25.11432 | 39.25120 | 42878 ft | 441 kts | 313° |
| 2026-04-24 18:56 | 25.16394 | 39.21118 | 42878 ft | 441 kts | 313° |
| 2026-04-24 18:56 | 25.21170 | 39.16931 | 42876 ft | 431 kts | 306° |
| 2026-04-24 18:57 | 25.24869 | 39.11895 | 42881 ft | 418 kts | 296° |
| 2026-04-24 18:57 | 25.28053 | 39.06582 | 42869 ft | 417 kts | 294° |
| 2026-04-24 18:58 | 25.31174 | 39.01186 | 42857 ft | 416 kts | 294° |
| 2026-04-24 18:58 | 25.34298 | 38.95795 | 42854 ft | 416 kts | 294° |
| 2026-04-24 18:59 | 25.37440 | 38.90404 | 42851 ft | 416 kts | 295° |
| 2026-04-24 18:59 | 25.40581 | 38.85018 | 42855 ft | 416 kts | 294° |
| 2026-04-24 19:00 | 25.43702 | 38.79660 | 42841 ft | 417 kts | 294° |
| 2026-04-24 19:00 | 25.46841 | 38.74264 | 42840 ft | 417 kts | 294° |
| 2026-04-24 19:01 | 25.49979 | 38.68867 | 42836 ft | 417 kts | 294° |
| 2026-04-24 19:01 | 25.53115 | 38.63464 | 42832 ft | 417 kts | 294° |
| 2026-04-24 19:02 | 25.55723 | 38.58968 | 42827 ft | 417 kts | 294° |
| 2026-04-24 19:02 | 25.59385 | 38.52647 | 42826 ft | 417 kts | 294° |
| 2026-04-24 19:03 | 25.62496 | 38.47271 | 42823 ft | 417 kts | 294° |
| 2026-04-24 19:03 | 25.65622 | 38.41861 | 42823 ft | 417 kts | 294° |
| 2026-04-24 19:04 | 25.68745 | 38.36449 | 42843 ft | 417 kts | 294° |
| 2026-04-24 19:04 | 25.71874 | 38.31022 | 42830 ft | 417 kts | 294° |
| 2026-04-24 19:05 | 25.74999 | 38.25595 | 42828 ft | 417 kts | 294° |
| 2026-04-24 19:05 | 25.78117 | 38.20174 | 42812 ft | 416 kts | 294° |
| 2026-04-24 19:06 | 25.81230 | 38.14752 | 42806 ft | 416 kts | 294° |
| 2026-04-24 19:06 | 25.84341 | 38.09335 | 42839 ft | 417 kts | 294° |
| 2026-04-24 19:07 | 25.87446 | 38.03917 | 42822 ft | 418 kts | 294° |
| 2026-04-24 19:07 | 25.90044 | 37.99381 | 42830 ft | 418 kts | 294° |
| 2026-04-24 19:08 | 25.93687 | 37.93013 | 42845 ft | 418 kts | 294° |
| 2026-04-24 19:08 | 25.96804 | 37.87559 | 42862 ft | 418 kts | 294° |
| 2026-04-24 19:09 | 25.99603 | 37.82010 | 42861 ft | 409 kts | 286° |
| 2026-04-24 19:09 | 26.01165 | 37.76030 | 42875 ft | 400 kts | 276° |
| 2026-04-24 19:10 | 26.02070 | 37.69933 | 42888 ft | 399 kts | 274° |
| 2026-04-24 19:10 | 26.02868 | 37.63826 | 42878 ft | 399 kts | 274° |
| 2026-04-24 19:11 | 26.03667 | 37.57721 | 42878 ft | 399 kts | 274° |
| 2026-04-24 19:11 | 26.04484 | 37.51612 | 42871 ft | 399 kts | 274° |
| 2026-04-24 19:12 | 26.05311 | 37.45508 | 42864 ft | 399 kts | 274° |
| 2026-04-24 19:12 | 26.06123 | 37.39441 | 42855 ft | 398 kts | 274° |
| 2026-04-24 19:13 | 26.06797 | 37.34375 | 42854 ft | 398 kts | 274° |
| 2026-04-24 19:13 | 26.07741 | 37.27253 | 42843 ft | 398 kts | 274° |
| 2026-04-24 19:14 | 26.08550 | 37.21152 | 42843 ft | 399 kts | 274° |
| 2026-04-24 19:14 | 26.09356 | 37.15052 | 42835 ft | 399 kts | 274° |
| 2026-04-24 19:15 | 26.10157 | 37.08974 | 42831 ft | 399 kts | 274° |
| 2026-04-24 19:15 | 26.10958 | 37.02874 | 42819 ft | 399 kts | 274° |
| 2026-04-24 19:16 | 26.12158 | 36.93697 | 42817 ft | 398 kts | 274° |
| 2026-04-24 19:16 | 26.12947 | 36.87630 | 42795 ft | 398 kts | 274° |
| 2026-04-24 19:17 | 26.13739 | 36.81527 | 42797 ft | 398 kts | 274° |
| 2026-04-24 19:17 | 26.14527 | 36.75432 | 42797 ft | 398 kts | 274° |
| 2026-04-24 19:18 | 26.15315 | 36.69321 | 42797 ft | 397 kts | 274° |
| 2026-04-24 19:18 | 26.16097 | 36.63227 | 42775 ft | 397 kts | 274° |
| 2026-04-24 19:19 | 26.16872 | 36.57177 | 42781 ft | 397 kts | 274° |
| 2026-04-24 19:19 | 26.18220 | 36.51174 | 42801 ft | 405 kts | 285° |
| 2026-04-24 19:20 | 26.20956 | 36.45601 | 42806 ft | 418 kts | 299° |
| 2026-04-24 19:20 | 26.24868 | 36.40696 | 42799 ft | 426 kts | 304° |
| 2026-04-24 19:21 | 26.28323 | 36.36749 | 42797 ft | 428 kts | 305° |
| 2026-04-24 19:21 | 26.32500 | 36.32015 | 42797 ft | 428 kts | 305° |
| 2026-04-24 19:22 | 26.37329 | 36.26479 | 42793 ft | 427 kts | 304° |
| 2026-04-24 19:22 | 26.40769 | 36.22507 | 42789 ft | 427 kts | 304° |
| 2026-04-24 19:23 | 26.44889 | 36.17738 | 42794 ft | 427 kts | 304° |
| 2026-04-24 19:23 | 26.49007 | 36.12967 | 42791 ft | 426 kts | 304° |
| 2026-04-24 19:24 | 26.53131 | 36.08184 | 42791 ft | 426 kts | 304° |
| 2026-04-24 19:24 | 26.57229 | 36.03428 | 42793 ft | 426 kts | 304° |
| 2026-04-24 19:25 | 26.61344 | 35.98646 | 42794 ft | 426 kts | 304° |
| 2026-04-24 19:25 | 26.65456 | 35.93862 | 42801 ft | 426 kts | 304° |
| 2026-04-24 19:26 | 26.69570 | 35.89071 | 42801 ft | 427 kts | 304° |
| 2026-04-24 19:26 | 26.73668 | 35.84293 | 42804 ft | 428 kts | 304° |
| 2026-04-24 19:27 | 26.77792 | 35.79481 | 42804 ft | 428 kts | 304° |
| 2026-04-24 19:27 | 26.81916 | 35.74667 | 42816 ft | 428 kts | 304° |
| 2026-04-24 19:28 | 26.86036 | 35.69848 | 42802 ft | 428 kts | 304° |
| 2026-04-24 19:28 | 26.90150 | 35.65031 | 42807 ft | 428 kts | 304° |
| 2026-04-24 19:29 | 26.96295 | 35.57825 | 42817 ft | 428 kts | 304° |
| 2026-04-24 19:30 | 27.00407 | 35.52997 | 42818 ft | 428 kts | 304° |
| 2026-04-24 19:30 | 27.04524 | 35.48157 | 42842 ft | 428 kts | 304° |
| 2026-04-24 19:31 | 27.08642 | 35.43308 | 42820 ft | 431 kts | 304° |
| 2026-04-24 19:31 | 27.12783 | 35.38429 | 42819 ft | 431 kts | 304° |
| 2026-04-24 19:32 | 27.16901 | 35.33575 | 42826 ft | 431 kts | 304° |
| 2026-04-24 19:32 | 27.21040 | 35.28689 | 42825 ft | 431 kts | 304° |
| 2026-04-24 19:33 | 27.25174 | 35.23802 | 42820 ft | 431 kts | 304° |
| 2026-04-24 19:33 | 27.29305 | 35.18913 | 42819 ft | 431 kts | 304° |
| 2026-04-24 19:34 | 27.33434 | 35.14020 | 42816 ft | 431 kts | 304° |
| 2026-04-24 19:34 | 27.37554 | 35.09132 | 42815 ft | 431 kts | 304° |
| 2026-04-24 19:35 | 27.41657 | 35.04259 | 42843 ft | 431 kts | 304° |
| 2026-04-24 19:35 | 27.45793 | 34.99339 | 42819 ft | 434 kts | 304° |
| 2026-04-24 19:36 | 27.49953 | 34.94387 | 42815 ft | 434 kts | 304° |
| 2026-04-24 19:36 | 27.54166 | 34.89539 | 42797 ft | 437 kts | 307° |
| 2026-04-24 19:37 | 27.58658 | 34.84869 | 42807 ft | 439 kts | 309° |
| 2026-04-24 19:37 | 27.63167 | 34.80220 | 42801 ft | 438 kts | 308° |
| 2026-04-24 19:38 | 27.67636 | 34.75536 | 42797 ft | 438 kts | 308° |
| 2026-04-24 19:38 | 27.72058 | 34.70853 | 42792 ft | 437 kts | 308° |
| 2026-04-24 19:39 | 27.76494 | 34.66142 | 42838 ft | 437 kts | 308° |
| 2026-04-24 19:39 | 27.80941 | 34.61413 | 42796 ft | 439 kts | 308° |
| 2026-04-24 19:40 | 27.85406 | 34.56663 | 42799 ft | 441 kts | 308° |
| 2026-04-24 19:40 | 27.89843 | 34.51941 | 42793 ft | 441 kts | 308° |
| 2026-04-24 19:41 | 27.94305 | 34.47188 | 42811 ft | 441 kts | 308° |
| 2026-04-24 19:41 | 27.98762 | 34.42416 | 42798 ft | 438 kts | 306° |
| 2026-04-24 19:42 | 28.02753 | 34.37271 | 42801 ft | 433 kts | 302° |
| 2026-04-24 19:42 | 28.06564 | 34.32042 | 42800 ft | 433 kts | 301° |
| 2026-04-24 19:43 | 28.10367 | 34.26755 | 42808 ft | 433 kts | 301° |
| 2026-04-24 19:43 | 28.14180 | 34.21455 | 42865 ft | 433 kts | 301° |
| 2026-04-24 19:44 | 28.18006 | 34.16137 | 42834 ft | 435 kts | 301° |
| 2026-04-24 19:44 | 28.21824 | 34.10827 | 42855 ft | 437 kts | 302° |
| 2026-04-24 19:45 | 28.25672 | 34.05485 | 42853 ft | 437 kts | 302° |
| 2026-04-24 19:45 | 28.29506 | 34.00144 | 42855 ft | 435 kts | 302° |
| 2026-04-24 19:46 | 28.33329 | 33.94815 | 42872 ft | 435 kts | 302° |
| 2026-04-24 19:46 | 28.37139 | 33.89490 | 42856 ft | 438 kts | 301° |
| 2026-04-24 19:47 | 28.40987 | 33.84108 | 42861 ft | 438 kts | 302° |
| 2026-04-24 19:47 | 28.44842 | 33.78721 | 42853 ft | 438 kts | 301° |
| 2026-04-24 19:48 | 28.48658 | 33.73374 | 42839 ft | 438 kts | 301° |
| 2026-04-24 19:48 | 28.54415 | 33.65287 | 42853 ft | 439 kts | 302° |
| 2026-04-24 19:49 | 28.62125 | 33.54466 | 42854 ft | 443 kts | 302° |
| 2026-04-24 19:50 | 28.69866 | 33.43568 | 42848 ft | 442 kts | 302° |
| 2026-04-24 19:51 | 28.75657 | 33.35373 | 42846 ft | 442 kts | 302° |
| 2026-04-24 19:52 | 28.81422 | 33.27211 | 42842 ft | 442 kts | 302° |
| 2026-04-24 19:52 | 28.85277 | 33.21742 | 42837 ft | 442 kts | 302° |
| 2026-04-24 19:53 | 28.89125 | 33.16278 | 42844 ft | 442 kts | 302° |
| 2026-04-24 19:54 | 28.94897 | 33.08066 | 42847 ft | 442 kts | 302° |
| 2026-04-24 19:54 | 28.98748 | 33.02580 | 42844 ft | 442 kts | 302° |
| 2026-04-24 19:55 | 29.01942 | 32.98023 | 42843 ft | 442 kts | 302° |
| 2026-04-24 19:55 | 29.06413 | 32.91636 | 42845 ft | 442 kts | 302° |
| 2026-04-24 19:56 | 29.10256 | 32.86138 | 42846 ft | 442 kts | 302° |
| 2026-04-24 19:56 | 29.14098 | 32.80635 | 42845 ft | 442 kts | 302° |
| 2026-04-24 19:57 | 29.17928 | 32.75145 | 42521 ft | 438 kts | 302° |
| 2026-04-24 19:57 | 29.19833 | 32.72411 | 41696 ft | 440 kts | 302° |
| 2026-04-24 19:57 | 29.21750 | 32.69651 | 40789 ft | 446 kts | 302° |
| 2026-04-24 19:57 | 29.23661 | 32.66898 | 39855 ft | 445 kts | 302° |
| 2026-04-24 19:58 | 29.25592 | 32.64119 | 38608 ft | 447 kts | 302° |
| 2026-04-24 19:58 | 29.27539 | 32.61313 | 36977 ft | 454 kts | 303° |
| 2026-04-24 19:58 | 29.29525 | 32.58443 | 35243 ft | 463 kts | 303° |
| 2026-04-24 19:58 | 29.31542 | 32.55512 | 33443 ft | 473 kts | 303° |
| 2026-04-24 19:59 | 29.33597 | 32.52513 | 31523 ft | 481 kts | 304° |
| 2026-04-24 19:59 | 29.35686 | 32.49464 | 29707 ft | 487 kts | 304° |
| 2026-04-24 19:59 | 29.37786 | 32.46401 | 27837 ft | 489 kts | 304° |
| 2026-04-24 19:59 | 29.39876 | 32.43357 | 26377 ft | 482 kts | 304° |
| 2026-04-24 20:00 | 29.41914 | 32.40391 | 25064 ft | 473 kts | 304° |
| 2026-04-24 20:00 | 29.43925 | 32.37463 | 24151 ft | 458 kts | 304° |
| 2026-04-24 20:00 | 29.45856 | 32.34653 | 23506 ft | 438 kts | 304° |
| 2026-04-24 20:00 | 29.47701 | 32.31963 | 22771 ft | 420 kts | 305° |
| 2026-04-24 20:01 | 29.49504 | 32.29321 | 22128 ft | 424 kts | 304° |
| 2026-04-24 20:01 | 29.51320 | 32.26649 | 21476 ft | 423 kts | 305° |
| 2026-04-24 20:01 | 29.53130 | 32.23986 | 20826 ft | 422 kts | 305° |
| 2026-04-24 20:01 | 29.54929 | 32.21340 | 20186 ft | 420 kts | 305° |
| 2026-04-24 20:02 | 29.56117 | 32.19594 | 19727 ft | 419 kts | 305° |
| 2026-04-24 20:02 | 29.58517 | 32.16067 | 18847 ft | 418 kts | 305° |
| 2026-04-24 20:02 | 29.60308 | 32.13433 | 18167 ft | 418 kts | 305° |
| 2026-04-24 20:02 | 29.62100 | 32.10798 | 17414 ft | 418 kts | 305° |
| 2026-04-24 20:03 | 29.63882 | 32.08175 | 16721 ft | 416 kts | 305° |
| 2026-04-24 20:03 | 29.65657 | 32.05563 | 16023 ft | 413 kts | 305° |
| 2026-04-24 20:03 | 29.67419 | 32.02968 | 15330 ft | 409 kts | 305° |
| 2026-04-24 20:03 | 29.69161 | 32.00401 | 14636 ft | 406 kts | 305° |
| 2026-04-24 20:04 | 29.70869 | 31.97881 | 13955 ft | 404 kts | 305° |
| 2026-04-24 20:04 | 29.72457 | 31.95258 | 13369 ft | 394 kts | 295° |
| 2026-04-24 20:04 | 29.73310 | 31.92355 | 13067 ft | 375 kts | 278° |
| 2026-04-24 20:04 | 29.73689 | 31.89450 | 12797 ft | 360 kts | 275° |
| 2026-04-24 20:05 | 29.74001 | 31.86649 | 12541 ft | 347 kts | 275° |
| 2026-04-24 20:05 | 29.74297 | 31.83940 | 12291 ft | 334 kts | 275° |
| 2026-04-24 20:05 | 29.74580 | 31.81361 | 12003 ft | 315 kts | 275° |
| 2026-04-24 20:05 | 29.74846 | 31.78928 | 11544 ft | 299 kts | 274° |
| 2026-04-24 20:06 | 29.75109 | 31.76602 | 10952 ft | 289 kts | 275° |
| 2026-04-24 20:06 | 29.75353 | 31.74309 | 10210 ft | 288 kts | 274° |
| 2026-04-24 20:06 | 29.75588 | 31.72039 | 9566 ft | 282 kts | 274° |
| 2026-04-24 20:06 | 29.75816 | 31.69813 | 8779 ft | 280 kts | 275° |
| 2026-04-24 20:07 | 29.75951 | 31.68330 | 8343 ft | 281 kts | 275° |
| 2026-04-24 20:07 | 29.76225 | 31.65314 | 7704 ft | 284 kts | 275° |
| 2026-04-24 20:07 | 29.76423 | 31.63063 | 7339 ft | 280 kts | 274° |
| 2026-04-24 20:07 | 29.76616 | 31.60852 | 6945 ft | 278 kts | 275° |
| 2026-04-24 20:08 | 29.76802 | 31.58637 | 6547 ft | 277 kts | 275° |
| 2026-04-24 20:08 | 29.76982 | 31.56424 | 6118 ft | 276 kts | 275° |
| 2026-04-24 20:08 | 29.77153 | 31.54226 | 5684 ft | 275 kts | 275° |
| 2026-04-24 20:08 | 29.77432 | 31.52082 | 5238 ft | 275 kts | 286° |
| 2026-04-24 20:09 | 29.78087 | 31.50031 | 4995 ft | 272 kts | 294° |
| 2026-04-24 20:09 | 29.78820 | 31.48013 | 4952 ft | 273 kts | 295° |
| 2026-04-24 20:09 | 29.79547 | 31.45995 | 4958 ft | 272 kts | 294° |
| 2026-04-24 20:09 | 29.80286 | 31.43988 | 4966 ft | 271 kts | 295° |
| 2026-04-24 20:10 | 29.80977 | 31.42085 | 4956 ft | 246 kts | 295° |
| 2026-04-24 20:10 | 29.81620 | 31.40337 | 4854 ft | 231 kts | 294° |
| 2026-04-24 20:10 | 29.82251 | 31.38637 | 4511 ft | 231 kts | 294° |
| 2026-04-24 20:10 | 29.82875 | 31.36946 | 4227 ft | 228 kts | 295° |
| 2026-04-24 20:11 | 29.83483 | 31.35258 | 3889 ft | 228 kts | 295° |
| 2026-04-24 20:11 | 29.83877 | 31.34140 | 3695 ft | 227 kts | 295° |
| 2026-04-24 20:11 | 29.84469 | 31.32456 | 3366 ft | 226 kts | 295° |
| 2026-04-24 20:11 | 29.85055 | 31.30785 | 3063 ft | 224 kts | 295° |
| 2026-04-24 20:12 | 29.85636 | 31.29109 | 2708 ft | 226 kts | 295° |
| 2026-04-24 20:12 | 29.86201 | 31.27437 | 2488 ft | 223 kts | 295° |
| 2026-04-24 20:12 | 29.86759 | 31.25766 | 2471 ft | 223 kts | 295° |
| 2026-04-24 20:12 | 29.87319 | 31.24090 | 2453 ft | 225 kts | 295° |
| 2026-04-24 20:13 | 29.88008 | 31.22487 | 2457 ft | 221 kts | 314° |
| 2026-04-24 20:13 | 29.89227 | 31.21520 | 2465 ft | 210 kts | 347° |
| 2026-04-24 20:13 | 29.90653 | 31.21450 | 2476 ft | 205 kts | 10° |
| 2026-04-24 20:13 | 29.92060 | 31.21765 | 2471 ft | 206 kts | 14° |
| 2026-04-24 20:14 | 29.93455 | 31.22147 | 2469 ft | 206 kts | 14° |
| 2026-04-24 20:14 | 29.94847 | 31.22544 | 2470 ft | 207 kts | 15° |
| 2026-04-24 20:14 | 29.96254 | 31.22936 | 2480 ft | 208 kts | 15° |
| 2026-04-24 20:14 | 29.97529 | 31.23636 | 2478 ft | 208 kts | 38° |
| 2026-04-24 20:15 | 29.98535 | 31.24828 | 2491 ft | 208 kts | 49° |
| 2026-04-24 20:15 | 29.99492 | 31.26076 | 2484 ft | 206 kts | 46° |
| 2026-04-24 20:15 | 30.00469 | 31.27283 | 2487 ft | 206 kts | 46° |
| 2026-04-24 20:15 | 30.01420 | 31.28518 | 2485 ft | 204 kts | 49° |
| 2026-04-24 20:16 | 30.02379 | 31.29806 | 2499 ft | 222 kts | 49° |
| 2026-04-24 20:16 | 30.03354 | 31.31102 | 2479 ft | 201 kts | 48° |
| 2026-04-24 20:16 | 30.04231 | 31.32234 | 2388 ft | 177 kts | 48° |
| 2026-04-24 20:16 | 30.04996 | 31.33226 | 2186 ft | 157 kts | 49° |
| 2026-04-24 20:17 | 30.05688 | 31.34150 | 1969 ft | 148 kts | 49° |
| 2026-04-24 20:17 | 30.06941 | 31.35815 | 1592 ft | 128 kts | 49° |
| 2026-04-24 20:17 | 30.07514 | 31.36578 | 1431 ft | 125 kts | 47° |
| 2026-04-24 20:18 | 30.07894 | 31.37083 | 1298 ft | 127 kts | 47° |
| 2026-04-24 20:18 | 30.08678 | 31.38103 | 913 ft | 127 kts | 50° |
| 2026-04-24 20:18 | 30.09240 | 31.38860 | 639 ft | 123 kts | 48° |
| 2026-04-24 20:18 | 30.09810 | 31.39615 | 474 ft | 127 kts | 50° |
| 2026-04-24 20:19 | 30.10391 | 31.40389 | 385 ft | 124 kts | 48° |
| 2026-04-24 20:19 | 30.10854 | 31.41002 | 378 ft | 77 kts | 49° |
| 2026-04-24 20:19 | 30.11100 | 31.41329 | 381 ft | 33 kts | 49° |
| 2026-04-24 20:19 | 30.11259 | 31.41512 | 379 ft | 31 kts | 36° |
| 2026-04-24 20:20 | 30.11438 | 31.41611 | 381 ft | 22 kts | 17° |
| 2026-04-24 20:20 | 30.11537 | 31.41624 | 381 ft | 11 kts | 347° |
| 2026-04-24 20:20 | 30.11562 | 31.41616 | 381 ft | 0 kts | 343° |
| 2026-04-24 20:21 | 30.11573 | 31.41604 | 381 ft | 5 kts | 311° |
| 2026-04-24 20:21 | 30.11562 | 31.41549 | 381 ft | 9 kts | 235° |
| 2026-04-24 20:21 | 30.11513 | 31.41482 | 381 ft | 13 kts | 229° |
| 2026-04-24 20:22 | 30.11446 | 31.41394 | 381 ft | 16 kts | 229° |
| 2026-04-24 20:22 | 30.11366 | 31.41289 | 381 ft | 19 kts | 229° |
| 2026-04-24 20:22 | 30.11272 | 31.41164 | 381 ft | 22 kts | 229° |
| 2026-04-24 20:22 | 30.11166 | 31.41021 | 381 ft | 25 kts | 229° |
| 2026-04-24 20:23 | 30.11065 | 31.40887 | 381 ft | 9 kts | 229° |
| 2026-04-24 20:23 | 30.11070 | 31.40822 | 381 ft | 9 kts | 314° |
| 2026-04-24 20:23 | 30.11081 | 31.40748 | 381 ft | 11 kts | 243° |
| 2026-04-24 20:23 | 30.11024 | 31.40675 | 381 ft | 14 kts | 227° |
| 2026-04-24 20:24 | 30.10951 | 31.40576 | 380 ft | 18 kts | 228° |
| 2026-04-24 20:24 | 30.10860 | 31.40455 | 380 ft | 22 kts | 229° |
| 2026-04-24 20:24 | 30.10753 | 31.40315 | 380 ft | 25 kts | 229° |
| 2026-04-24 20:24 | 30.10635 | 31.40158 | 380 ft | 27 kts | 229° |
| 2026-04-24 20:25 | 30.10513 | 31.39999 | 380 ft | 19 kts | 227° |
| 2026-04-24 20:25 | 30.10485 | 31.39911 | 380 ft | 11 kts | 299° |
| 2026-04-24 20:25 | 30.10552 | 31.39854 | 380 ft | 13 kts | 340° |
| 2026-04-24 20:25 | 30.10650 | 31.39823 | 380 ft | 16 kts | 345° |
| 2026-04-24 20:26 | 30.10763 | 31.39789 | 380 ft | 18 kts | 345° |
| 2026-04-24 20:26 | 30.10819 | 31.39760 | 380 ft | 6 kts | 296° |
| 2026-04-24 20:26 | 30.10813 | 31.39705 | 380 ft | 5 kts | 257° |
| 2026-04-24 20:26 | 30.10809 | 31.39685 | 380 ft | 0 kts | 256° |